sensor_id;sensor_type;location;lat;lon;timestamp;pressure;altitude;pressure_sealevel;temperature;humidity
18436;BME280;9346;52.006;4.720;2024-02-21T00:02:21;102066.78;;;10.91;100.00
18436;BME280;9346;52.006;4.720;2024-02-21T00:04:48;102064.88;;;10.91;100.00
18436;BME280;9346;52.006;4.720;2024-02-21T00:07:15;102061.88;;;10.93;100.00
18436;BME280;9346;52.006;4.720;2024-02-21T00:09:42;102044.47;;;10.92;100.00
18436;BME280;9346;52.006;4.720;2024-02-21T00:12:09;102036.69;;;10.89;100.00
18436;BME280;9346;52.006;4.720;2024-02-21T00:14:35;102048.81;;;10.88;100.00
18436;BME280;9346;52.006;4.720;2024-02-21T00:17:04;102035.28;;;10.87;100.00
18436;BME280;9346;52.006;4.720;2024-02-21T00:19:30;102041.84;;;10.86;100.00
18436;BME280;9346;52.006;4.720;2024-02-21T00:21:57;102057.59;;;10.85;100.00
18436;BME280;9346;52.006;4.720;2024-02-21T00:24:24;102051.22;;;10.85;100.00
18436;BME280;9346;52.006;4.720;2024-02-21T00:26:50;102035.53;;;10.85;100.00
18436;BME280;9346;52.006;4.720;2024-02-21T00:29:17;102027.00;;;10.87;100.00
18436;BME280;9346;52.006;4.720;2024-02-21T00:31:43;102030.84;;;10.86;100.00
18436;BME280;9346;52.006;4.720;2024-02-21T00:34:12;102031.69;;;10.86;100.00
18436;BME280;9346;52.006;4.720;2024-02-21T00:36:39;102042.94;;;10.85;100.00
18436;BME280;9346;52.006;4.720;2024-02-21T00:39:05;102044.63;;;10.86;100.00
18436;BME280;9346;52.006;4.720;2024-02-21T00:41:32;102049.88;;;10.87;100.00
18436;BME280;9346;52.006;4.720;2024-02-21T00:43:59;102050.72;;;10.88;100.00
18436;BME280;9346;52.006;4.720;2024-02-21T00:46:26;102039.69;;;10.88;100.00
18436;BME280;9346;52.006;4.720;2024-02-21T00:48:52;102043.56;;;10.87;100.00
18436;BME280;9346;52.006;4.720;2024-02-21T00:51:20;102047.13;;;10.87;100.00
18436;BME280;9346;52.006;4.720;2024-02-21T00:53:47;102059.00;;;10.88;100.00
18436;BME280;9346;52.006;4.720;2024-02-21T00:56:14;102047.38;;;10.86;100.00
18436;BME280;9346;52.006;4.720;2024-02-21T00:58:40;102042.72;;;10.86;100.00
18436;BME280;9346;52.006;4.720;2024-02-21T01:01:07;102033.34;;;10.87;100.00
18436;BME280;9346;52.006;4.720;2024-02-21T01:03:34;102028.69;;;10.88;100.00
18436;BME280;9346;52.006;4.720;2024-02-21T01:06:00;102032.53;;;10.87;100.00
18436;BME280;9346;52.006;4.720;2024-02-21T01:08:29;102023.16;;;10.88;100.00
18436;BME280;9346;52.006;4.720;2024-02-21T01:10:56;102024.81;;;10.89;100.00
18436;BME280;9346;52.006;4.720;2024-02-21T01:13:22;102030.09;;;10.90;100.00
18436;BME280;9346;52.006;4.720;2024-02-21T01:15:49;102024.59;;;10.90;100.00
18436;BME280;9346;52.006;4.720;2024-02-21T01:18:16;102027.34;;;10.90;100.00
18436;BME280;9346;52.006;4.720;2024-02-21T01:20:43;102017.16;;;10.91;100.00
18436;BME280;9346;52.006;4.720;2024-02-21T01:23:09;102015.00;;;10.93;100.00
18436;BME280;9346;52.006;4.720;2024-02-21T01:25:38;102006.13;;;10.91;100.00
18436;BME280;9346;52.006;4.720;2024-02-21T01:28:04;102004.78;;;10.93;100.00
18436;BME280;9346;52.006;4.720;2024-02-21T01:30:31;102003.38;;;10.91;100.00
18436;BME280;9346;52.006;4.720;2024-02-21T01:32:58;101997.88;;;10.91;100.00
18436;BME280;9346;52.006;4.720;2024-02-21T01:35:25;101995.94;;;10.91;100.00
18436;BME280;9346;52.006;4.720;2024-02-21T01:37:51;101990.44;;;10.91;100.00
18436;BME280;9346;52.006;4.720;2024-02-21T01:40:18;101992.94;;;10.93;100.00
18436;BME280;9346;52.006;4.720;2024-02-21T01:42:46;101986.34;;;10.94;100.00
18436;BME280;9346;52.006;4.720;2024-02-21T01:45:14;101983.59;;;10.94;100.00
18436;BME280;9346;52.006;4.720;2024-02-21T01:47:41;101976.41;;;10.93;100.00
18436;BME280;9346;52.006;4.720;2024-02-21T01:50:08;101990.19;;;10.93;100.00
18436;BME280;9346;52.006;4.720;2024-02-21T01:52:36;101998.47;;;10.93;100.00
18436;BME280;9346;52.006;4.720;2024-02-21T01:55:03;101988.00;;;10.95;100.00
18436;BME280;9346;52.006;4.720;2024-02-21T01:57:30;101987.19;;;10.94;100.00
18436;BME280;9346;52.006;4.720;2024-02-21T01:59:59;101985.25;;;10.95;100.00
18436;BME280;9346;52.006;4.720;2024-02-21T02:02:26;101979.97;;;10.93;100.00
18436;BME280;9346;52.006;4.720;2024-02-21T02:04:54;101962.28;;;10.89;100.00
18436;BME280;9346;52.006;4.720;2024-02-21T02:07:21;101968.28;;;10.86;100.00
18436;BME280;9346;52.006;4.720;2024-02-21T02:09:47;101959.16;;;10.86;100.00
18436;BME280;9346;52.006;4.720;2024-02-21T02:12:14;101955.84;;;10.84;100.00
18436;BME280;9346;52.006;4.720;2024-02-21T02:14:41;101961.34;;;10.84;100.00
18436;BME280;9346;52.006;4.720;2024-02-21T02:17:09;101953.09;;;10.84;100.00
18436;BME280;9346;52.006;4.720;2024-02-21T02:19:36;101955.84;;;10.84;100.00
18436;BME280;9346;52.006;4.720;2024-02-21T02:22:09;101957.25;;;10.86;100.00
18436;BME280;9346;52.006;4.720;2024-02-21T02:24:42;101949.84;;;10.87;100.00
18436;BME280;9346;52.006;4.720;2024-02-21T02:27:08;101945.38;;;10.86;100.00
18436;BME280;9346;52.006;4.720;2024-02-21T02:29:35;101952.84;;;10.85;100.00
18436;BME280;9346;52.006;4.720;2024-02-21T02:32:02;101940.16;;;10.84;100.00
18436;BME280;9346;52.006;4.720;2024-02-21T02:34:28;101937.66;;;10.83;100.00
18436;BME280;9346;52.006;4.720;2024-02-21T02:36:56;101937.91;;;10.81;100.00
18436;BME280;9346;52.006;4.720;2024-02-21T02:39:22;101935.13;;;10.81;100.00
18436;BME280;9346;52.006;4.720;2024-02-21T02:41:51;101942.56;;;10.81;100.00
18436;BME280;9346;52.006;4.720;2024-02-21T02:44:17;101932.38;;;10.81;100.00
18436;BME280;9346;52.006;4.720;2024-02-21T02:46:44;101932.38;;;10.81;100.00
18436;BME280;9346;52.006;4.720;2024-02-21T02:49:11;101939.06;;;10.85;100.00
18436;BME280;9346;52.006;4.720;2024-02-21T02:51:41;101936.31;;;10.85;100.00
18436;BME280;9346;52.006;4.720;2024-02-21T02:54:07;101924.19;;;10.86;100.00
18436;BME280;9346;52.006;4.720;2024-02-21T02:56:34;101924.78;;;10.88;100.00
18436;BME280;9346;52.006;4.720;2024-02-21T02:59:03;101915.66;;;10.88;100.00
18436;BME280;9346;52.006;4.720;2024-02-21T03:01:33;101907.91;;;10.85;100.00
18436;BME280;9346;52.006;4.720;2024-02-21T03:04:00;101906.22;;;10.84;100.00
18436;BME280;9346;52.006;4.720;2024-02-21T03:06:26;101909.25;;;10.82;100.00
18436;BME280;9346;52.006;4.720;2024-02-21T03:08:53;101898.22;;;10.82;100.00
18436;BME280;9346;52.006;4.720;2024-02-21T03:11:20;101891.03;;;10.81;100.00
18436;BME280;9346;52.006;4.720;2024-02-21T03:13:54;101885.53;;;10.81;100.00
18436;BME280;9346;52.006;4.720;2024-02-21T03:16:22;101886.34;;;10.82;100.00
18436;BME280;9346;52.006;4.720;2024-02-21T03:18:49;101890.19;;;10.81;100.00
18436;BME280;9346;52.006;4.720;2024-02-21T03:21:16;101891.03;;;10.81;100.00
18436;BME280;9346;52.006;4.720;2024-02-21T03:23:42;101878.06;;;10.82;100.00
18436;BME280;9346;52.006;4.720;2024-02-21T03:26:09;101870.31;;;10.79;100.00
18436;BME280;9346;52.006;4.720;2024-02-21T03:28:36;101870.00;;;10.75;100.00
18436;BME280;9346;52.006;4.720;2024-02-21T03:31:05;101859.22;;;10.74;100.00
18436;BME280;9346;52.006;4.720;2024-02-21T03:33:33;101868.28;;;10.74;100.00
18436;BME280;9346;52.006;4.720;2024-02-21T03:36:00;101869.16;;;10.75;100.00
18436;BME280;9346;52.006;4.720;2024-02-21T03:38:27;101867.22;;;10.75;100.00
18436;BME280;9346;52.006;4.720;2024-02-21T03:40:54;101852.84;;;10.73;100.00
18436;BME280;9346;52.006;4.720;2024-02-21T03:43:20;101859.97;;;10.69;100.00
18436;BME280;9346;52.006;4.720;2024-02-21T03:45:47;101852.78;;;10.68;100.00
18436;BME280;9346;52.006;4.720;2024-02-21T03:48:14;101858.31;;;10.68;100.00
18436;BME280;9346;52.006;4.720;2024-02-21T03:50:42;101848.59;;;10.66;100.00
18436;BME280;9346;52.006;4.720;2024-02-21T03:53:09;101851.84;;;10.63;100.00
18436;BME280;9346;52.006;4.720;2024-02-21T03:55:36;101856.53;;;10.62;100.00
18436;BME280;9346;52.006;4.720;2024-02-21T03:58:03;101853.78;;;10.62;100.00
18436;BME280;9346;52.006;4.720;2024-02-21T04:00:29;101846.28;;;10.58;100.00
18436;BME280;9346;52.006;4.720;2024-02-21T04:02:56;101837.16;;;10.57;100.00
18436;BME280;9346;52.006;4.720;2024-02-21T04:05:23;101836.59;;;10.55;100.00
18436;BME280;9346;52.006;4.720;2024-02-21T04:07:51;101839.34;;;10.55;100.00
18436;BME280;9346;52.006;4.720;2024-02-21T04:10:18;101828.59;;;10.54;100.00
18436;BME280;9346;52.006;4.720;2024-02-21T04:12:44;101839.84;;;10.52;100.00
18436;BME280;9346;52.006;4.720;2024-02-21T04:15:11;101848.94;;;10.53;100.00
18436;BME280;9346;52.006;4.720;2024-02-21T04:17:38;101847.88;;;10.54;100.00
18436;BME280;9346;52.006;4.720;2024-02-21T04:20:05;101845.09;;;10.54;100.00
18436;BME280;9346;52.006;4.720;2024-02-21T04:22:34;101847.25;;;10.52;100.00
18436;BME280;9346;52.006;4.720;2024-02-21T04:25:02;101848.94;;;10.53;100.00
18436;BME280;9346;52.006;4.720;2024-02-21T04:27:29;101844.25;;;10.53;100.00
18436;BME280;9346;52.006;4.720;2024-02-21T04:29:56;101841.50;;;10.53;100.00
18436;BME280;9346;52.006;4.720;2024-02-21T04:32:22;101839.59;;;10.54;100.00
18436;BME280;9346;52.006;4.720;2024-02-21T04:34:49;101834.09;;;10.54;100.00
18436;BME280;9346;52.006;4.720;2024-02-21T04:37:16;101829.88;;;10.51;100.00
18436;BME280;9346;52.006;4.720;2024-02-21T04:39:43;101818.88;;;10.51;100.00
18436;BME280;9346;52.006;4.720;2024-02-21T04:42:11;101805.34;;;10.50;100.00
18436;BME280;9346;52.006;4.720;2024-02-21T04:44:38;101818.31;;;10.49;100.00
18436;BME280;9346;52.006;4.720;2024-02-21T04:47:05;101807.53;;;10.48;100.00
18436;BME280;9346;52.006;4.720;2024-02-21T04:49:32;101800.34;;;10.47;100.00
18436;BME280;9346;52.006;4.720;2024-02-21T04:51:59;101805.28;;;10.45;100.00
18436;BME280;9346;52.006;4.720;2024-02-21T04:54:26;101797.84;;;10.45;100.00
18436;BME280;9346;52.006;4.720;2024-02-21T04:56:53;101788.75;;;10.45;100.00
18436;BME280;9346;52.006;4.720;2024-02-21T04:59:21;101797.03;;;10.45;100.00
18436;BME280;9346;52.006;4.720;2024-02-21T05:01:48;101798.94;;;10.44;100.00
18436;BME280;9346;52.006;4.720;2024-02-21T05:04:15;101786.81;;;10.45;100.00
18436;BME280;9346;52.006;4.720;2024-02-21T05:06:42;101778.31;;;10.47;100.00
18436;BME280;9346;52.006;4.720;2024-02-21T05:09:09;101782.16;;;10.46;100.00
18436;BME280;9346;52.006;4.720;2024-02-21T05:11:35;101778.81;;;10.44;100.00
18436;BME280;9346;52.006;4.720;2024-02-21T05:14:03;101767.28;;;10.47;100.00
18436;BME280;9346;52.006;4.720;2024-02-21T05:16:32;101759.28;;;10.45;100.00
18436;BME280;9346;52.006;4.720;2024-02-21T05:18:59;101769.47;;;10.45;100.00
18436;BME280;9346;52.006;4.720;2024-02-21T05:21:26;101761.47;;;10.43;100.00
18436;BME280;9346;52.006;4.720;2024-02-21T05:23:53;101768.63;;;10.44;100.00
18436;BME280;9346;52.006;4.720;2024-02-21T05:26:20;101759.28;;;10.45;100.00
18436;BME280;9346;52.006;4.720;2024-02-21T05:28:48;101742.75;;;10.45;100.00
18436;BME280;9346;52.006;4.720;2024-02-21T05:31:15;101738.59;;;10.43;100.00
18436;BME280;9346;52.006;4.720;2024-02-21T05:33:43;101734.41;;;10.40;100.00
18436;BME280;9346;52.006;4.720;2024-02-21T05:36:10;101730.81;;;10.40;100.00
18436;BME280;9346;52.006;4.720;2024-02-21T05:38:37;101718.16;;;10.39;100.00
18436;BME280;9346;52.006;4.720;2024-02-21T05:41:04;101722.00;;;10.38;100.00
18436;BME280;9346;52.006;4.720;2024-02-21T05:43:31;101723.06;;;10.37;100.00
18436;BME280;9346;52.006;4.720;2024-02-21T05:45:58;101710.97;;;10.38;100.00
18436;BME280;9346;52.006;4.720;2024-02-21T05:48:25;101710.97;;;10.38;100.00
18436;BME280;9346;52.006;4.720;2024-02-21T05:50:54;101712.88;;;10.37;100.00
18436;BME280;9346;52.006;4.720;2024-02-21T05:53:20;101703.78;;;10.37;100.00
18436;BME280;9346;52.006;4.720;2024-02-21T05:55:47;101706.78;;;10.35;100.00
18436;BME280;9346;52.006;4.720;2024-02-21T05:58:14;101700.47;;;10.35;100.00
18436;BME280;9346;52.006;4.720;2024-02-21T06:00:40;101699.63;;;10.34;100.00
18436;BME280;9346;52.006;4.720;2024-02-21T06:03:07;101698.78;;;10.34;100.00
18436;BME280;9346;52.006;4.720;2024-02-21T06:05:37;101697.13;;;10.33;100.00
18436;BME280;9346;52.006;4.720;2024-02-21T06:08:06;101684.19;;;10.33;100.00
18436;BME280;9346;52.006;4.720;2024-02-21T06:10:34;101685.25;;;10.32;100.00
18436;BME280;9346;52.006;4.720;2024-02-21T06:13:01;101683.34;;;10.33;100.00
18436;BME280;9346;52.006;4.720;2024-02-21T06:15:27;101690.75;;;10.32;100.00
18436;BME280;9346;52.006;4.720;2024-02-21T06:17:54;101692.72;;;10.32;100.00
18436;BME280;9346;52.006;4.720;2024-02-21T06:20:21;101689.34;;;10.30;100.00
18436;BME280;9346;52.006;4.720;2024-02-21T06:22:47;101698.22;;;10.32;100.00
18436;BME280;9346;52.006;4.720;2024-02-21T06:25:16;101699.03;;;10.32;100.00
18436;BME280;9346;52.006;4.720;2024-02-21T06:27:43;101712.53;;;10.34;100.00
18436;BME280;9346;52.006;4.720;2024-02-21T06:30:11;101708.13;;;10.33;100.00
18436;BME280;9346;52.006;4.720;2024-02-21T06:32:38;101707.03;;;10.34;100.00
18436;BME280;9346;52.006;4.720;2024-02-21T06:35:05;101711.47;;;10.35;100.00
18436;BME280;9346;52.006;4.720;2024-02-21T06:37:32;101706.47;;;10.32;100.00
18436;BME280;9346;52.006;4.720;2024-02-21T06:39:59;101703.97;;;10.30;100.00
18436;BME280;9346;52.006;4.720;2024-02-21T06:42:27;101688.75;;;10.28;100.00
18436;BME280;9346;52.006;4.720;2024-02-21T06:44:55;101697.56;;;10.25;100.00
18436;BME280;9346;52.006;4.720;2024-02-21T06:47:23;101695.88;;;10.24;100.00
18436;BME280;9346;52.006;4.720;2024-02-21T06:49:50;101687.03;;;10.22;100.00
18436;BME280;9346;52.006;4.720;2024-02-21T06:52:17;101685.09;;;10.22;100.00
18436;BME280;9346;52.006;4.720;2024-02-21T06:54:45;101680.94;;;10.20;100.00
18436;BME280;9346;52.006;4.720;2024-02-21T06:57:13;101672.69;;;10.20;100.00
18436;BME280;9346;52.006;4.720;2024-02-21T06:59:42;101668.03;;;10.20;100.00
18436;BME280;9346;52.006;4.720;2024-02-21T07:02:09;101674.03;;;10.17;100.00
18436;BME280;9346;52.006;4.720;2024-02-21T07:04:35;101663.81;;;10.18;100.00
18436;BME280;9346;52.006;4.720;2024-02-21T07:07:02;101670.69;;;10.15;100.00
18436;BME280;9346;52.006;4.720;2024-02-21T07:09:29;101662.06;;;10.12;100.00
18436;BME280;9346;52.006;4.720;2024-02-21T07:11:57;101656.00;;;10.10;100.00
18436;BME280;9346;52.006;4.720;2024-02-21T07:14:24;101654.34;;;10.09;100.00
18436;BME280;9346;52.006;4.720;2024-02-21T07:16:53;101649.31;;;10.06;100.00
18436;BME280;9346;52.006;4.720;2024-02-21T07:19:20;101653.38;;;10.03;100.00
18436;BME280;9346;52.006;4.720;2024-02-21T07:21:46;101646.47;;;10.01;100.00
18436;BME280;9346;52.006;4.720;2024-02-21T07:24:13;101634.63;;;10.00;100.00
18436;BME280;9346;52.006;4.720;2024-02-21T07:26:41;101627.44;;;9.99;100.00
18436;BME280;9346;52.006;4.720;2024-02-21T07:29:09;101626.59;;;9.99;100.00
18436;BME280;9346;52.006;4.720;2024-02-21T07:31:40;101626.59;;;9.99;100.00
18436;BME280;9346;52.006;4.720;2024-02-21T07:34:09;101614.78;;;9.98;100.00
18436;BME280;9346;52.006;4.720;2024-02-21T07:36:36;101609.53;;;9.97;100.00
18436;BME280;9346;52.006;4.720;2024-02-21T07:39:04;101614.44;;;9.95;100.00
18436;BME280;9346;52.006;4.720;2024-02-21T07:41:31;101603.19;;;9.96;100.00
18436;BME280;9346;52.006;4.720;2024-02-21T07:43:59;101610.03;;;9.94;100.00
18436;BME280;9346;52.006;4.720;2024-02-21T07:46:26;101605.13;;;9.96;100.00
18436;BME280;9346;52.006;4.720;2024-02-21T07:48:53;101612.53;;;9.95;100.00
18436;BME280;9346;52.006;4.720;2024-02-21T07:51:21;101607.59;;;9.97;100.00
18436;BME280;9346;52.006;4.720;2024-02-21T07:53:48;101599.09;;;9.99;100.00
18436;BME280;9346;52.006;4.720;2024-02-21T07:56:15;101593.31;;;10.00;100.00
18436;BME280;9346;52.006;4.720;2024-02-21T07:58:42;101589.50;;;10.01;100.00
18436;BME280;9346;52.006;4.720;2024-02-21T08:01:08;101583.75;;;10.03;100.00
18436;BME280;9346;52.006;4.720;2024-02-21T08:03:35;101577.41;;;10.02;100.00
18436;BME280;9346;52.006;4.720;2024-02-21T08:06:04;101584.31;;;10.05;100.00
18436;BME280;9346;52.006;4.720;2024-02-21T08:08:32;101585.16;;;10.05;100.00
18436;BME280;9346;52.006;4.720;2024-02-21T08:10:59;101578.59;;;10.06;100.00
18436;BME280;9346;52.006;4.720;2024-02-21T08:13:26;101572.03;;;10.07;100.00
18436;BME280;9346;52.006;4.720;2024-02-21T08:15:54;101575.34;;;10.09;100.00
18436;BME280;9346;52.006;4.720;2024-02-21T08:18:20;101564.31;;;10.09;100.00
18436;BME280;9346;52.006;4.720;2024-02-21T08:20:47;101561.56;;;10.09;100.00
18436;BME280;9346;52.006;4.720;2024-02-21T08:23:16;101555.81;;;10.11;100.00
18436;BME280;9346;52.006;4.720;2024-02-21T08:25:44;101553.66;;;10.13;100.00
18436;BME280;9346;52.006;4.720;2024-02-21T08:28:11;101553.66;;;10.13;100.00
18436;BME280;9346;52.006;4.720;2024-02-21T08:30:38;101552.56;;;10.14;100.00
18436;BME280;9346;52.006;4.720;2024-02-21T08:33:05;101556.72;;;10.16;100.00
18436;BME280;9346;52.006;4.720;2024-02-21T08:35:32;101550.69;;;10.19;100.00
18436;BME280;9346;52.006;4.720;2024-02-21T08:37:59;101534.19;;;10.19;100.00
18436;BME280;9346;52.006;4.720;2024-02-21T08:40:25;101539.13;;;10.17;100.00
18436;BME280;9346;52.006;4.720;2024-02-21T08:42:54;101532.28;;;10.20;100.00
18436;BME280;9346;52.006;4.720;2024-02-21T08:45:20;101534.50;;;10.23;100.00
18436;BME280;9346;52.006;4.720;2024-02-21T08:47:47;101529.00;;;10.23;100.00
18436;BME280;9346;52.006;4.720;2024-02-21T08:50:14;101526.25;;;10.23;100.00
18436;BME280;9346;52.006;4.720;2024-02-21T08:52:40;101524.34;;;10.23;100.00
18436;BME280;9346;52.006;4.720;2024-02-21T08:55:08;101517.47;;;10.26;100.00
18436;BME280;9346;52.006;4.720;2024-02-21T08:57:34;101512.25;;;10.24;100.00
18436;BME280;9346;52.006;4.720;2024-02-21T09:00:05;101521.34;;;10.25;100.00
18436;BME280;9346;52.006;4.720;2024-02-21T09:02:35;101503.13;;;10.24;100.00
18436;BME280;9346;52.006;4.720;2024-02-21T09:05:03;101505.13;;;10.28;100.00
18436;BME280;9346;52.006;4.720;2024-02-21T09:07:31;101496.00;;;10.28;100.00
18436;BME280;9346;52.006;4.720;2024-02-21T09:09:58;101497.97;;;10.27;100.00
18436;BME280;9346;52.006;4.720;2024-02-21T09:12:24;101485.81;;;10.23;100.00
18436;BME280;9346;52.006;4.720;2024-02-21T09:14:51;101481.94;;;10.24;100.00
18436;BME280;9346;52.006;4.720;2024-02-21T09:17:19;101483.59;;;10.25;100.00
18436;BME280;9346;52.006;4.720;2024-02-21T09:19:46;101465.19;;;10.26;100.00
18436;BME280;9346;52.006;4.720;2024-02-21T09:22:13;101461.31;;;10.27;100.00
18436;BME280;9346;52.006;4.720;2024-02-21T09:24:40;101460.22;;;10.28;100.00
18436;BME280;9346;52.006;4.720;2024-02-21T09:27:07;101459.16;;;10.29;100.00
18436;BME280;9346;52.006;4.720;2024-02-21T09:29:33;101431.38;;;10.30;100.00
18436;BME280;9346;52.006;4.720;2024-02-21T09:32:00;101451.44;;;10.31;100.00
18436;BME280;9346;52.006;4.720;2024-02-21T09:34:29;101440.75;;;10.34;100.00
18436;BME280;9346;52.006;4.720;2024-02-21T09:36:56;101423.47;;;10.39;100.00
18436;BME280;9346;52.006;4.720;2024-02-21T09:39:23;101422.38;;;10.40;100.00
18436;BME280;9346;52.006;4.720;2024-02-21T09:41:50;101411.34;;;10.40;100.00
18436;BME280;9346;52.006;4.720;2024-02-21T09:44:21;101400.34;;;10.40;100.00
18436;BME280;9346;52.006;4.720;2024-02-21T09:46:52;101395.66;;;10.40;100.00
18436;BME280;9346;52.006;4.720;2024-02-21T09:49:31;101390.44;;;10.39;100.00
18436;BME280;9346;52.006;4.720;2024-02-21T09:52:00;101372.81;;;10.40;100.00
18436;BME280;9346;52.006;4.720;2024-02-21T09:54:29;101365.66;;;10.44;100.00
18436;BME280;9346;52.006;4.720;2024-02-21T09:56:56;101371.19;;;10.44;100.00
18436;BME280;9346;52.006;4.720;2024-02-21T09:59:23;101368.16;;;10.45;100.00
18436;BME280;9346;52.006;4.720;2024-02-21T10:01:50;101364.59;;;10.45;100.00
18436;BME280;9346;52.006;4.720;2024-02-21T10:04:17;101363.50;;;10.46;100.00
18436;BME280;9346;52.006;4.720;2024-02-21T10:06:47;101352.81;;;10.49;100.00
18436;BME280;9346;52.006;4.720;2024-02-21T10:09:21;101350.59;;;10.51;100.00
18436;BME280;9346;52.006;4.720;2024-02-21T10:11:48;101347.59;;;10.53;100.00
18436;BME280;9346;52.006;4.720;2024-02-21T10:14:15;101333.81;;;10.53;100.00
18436;BME280;9346;52.006;4.720;2024-02-21T10:16:42;101317.56;;;10.51;100.00
18436;BME280;9346;52.006;4.720;2024-02-21T10:19:17;101309.03;;;10.53;100.00
18436;BME280;9346;52.006;4.720;2024-02-21T10:21:43;101303.84;;;10.56;100.00
18436;BME280;9346;52.006;4.720;2024-02-21T10:24:13;101276.03;;;10.58;100.00
18436;BME280;9346;52.006;4.720;2024-02-21T10:26:39;101270.50;;;10.58;100.00
18436;BME280;9346;52.006;4.720;2024-02-21T10:29:06;101241.59;;;10.60;100.00
18436;BME280;9346;52.006;4.720;2024-02-21T10:31:33;101238.84;;;10.60;100.00
18436;BME280;9346;52.006;4.720;2024-02-21T10:34:00;101267.78;;;10.63;100.00
18436;BME280;9346;52.006;4.720;2024-02-21T10:36:29;101278.84;;;10.68;100.00
18436;BME280;9346;52.006;4.720;2024-02-21T10:38:55;101293.22;;;10.70;100.00
18436;BME280;9346;52.006;4.720;2024-02-21T10:41:24;101299.00;;;10.73;100.00
18436;BME280;9346;52.006;4.720;2024-02-21T10:43:53;101293.50;;;10.73;100.00
18436;BME280;9346;52.006;4.720;2024-02-21T10:46:21;101294.59;;;10.72;100.00
18436;BME280;9346;52.006;4.720;2024-02-21T10:48:52;101299.84;;;10.74;100.00
18436;BME280;9346;52.006;4.720;2024-02-21T10:51:25;101291.31;;;10.75;100.00
18436;BME280;9346;52.006;4.720;2024-02-21T10:54:04;101293.81;;;10.77;100.00
18436;BME280;9346;52.006;4.720;2024-02-21T10:56:35;101282.78;;;10.77;100.00
18436;BME280;9346;52.006;4.720;2024-02-21T10:59:07;101275.03;;;10.74;100.00
18436;BME280;9346;52.006;4.720;2024-02-21T11:01:34;101273.09;;;10.74;100.00
18436;BME280;9346;52.006;4.720;2024-02-21T11:04:03;101277.81;;;10.74;100.00
18436;BME280;9346;52.006;4.720;2024-02-21T11:06:32;101268.44;;;10.75;100.00
18436;BME280;9346;52.006;4.720;2024-02-21T11:09:03;101266.53;;;10.80;100.00
18436;BME280;9346;52.006;4.720;2024-02-21T11:11:35;101264.34;;;10.82;100.00
18436;BME280;9346;52.006;4.720;2024-02-21T11:14:07;101260.22;;;10.85;100.00
18436;BME280;9346;52.006;4.720;2024-02-21T11:16:37;101241.50;;;10.87;100.00
18436;BME280;9346;52.006;4.720;2024-02-21T11:19:06;101239.88;;;10.91;100.00
18436;BME280;9346;52.006;4.720;2024-02-21T11:21:33;101199.38;;;10.91;100.00
18436;BME280;9346;52.006;4.720;2024-02-21T11:24:01;101188.91;;;10.93;100.00
18436;BME280;9346;52.006;4.720;2024-02-21T11:26:29;101185.88;;;10.95;100.00
18436;BME280;9346;52.006;4.720;2024-02-21T11:28:59;101195.56;;;10.97;100.00
18436;BME280;9346;52.006;4.720;2024-02-21T11:31:26;101182.03;;;11.01;100.00
18436;BME280;9346;52.006;4.720;2024-02-21T11:33:53;101168.56;;;11.04;100.00
18436;BME280;9346;52.006;4.720;2024-02-21T11:36:27;101147.06;;;11.06;100.00
18436;BME280;9346;52.006;4.720;2024-02-21T11:38:54;101138.25;;;11.09;100.00
18436;BME280;9346;52.006;4.720;2024-02-21T11:41:20;101133.00;;;11.08;100.00
18436;BME280;9346;52.006;4.720;2024-02-21T11:43:48;101144.59;;;11.10;100.00
18436;BME280;9346;52.006;4.720;2024-02-21T11:46:16;101130.81;;;11.15;100.00
18436;BME280;9346;52.006;4.720;2024-02-21T11:48:44;101130.53;;;11.16;100.00
18436;BME280;9346;52.006;4.720;2024-02-21T11:51:21;101129.19;;;11.19;100.00
18436;BME280;9346;52.006;4.720;2024-02-21T11:53:48;101130.84;;;11.20;100.00
18436;BME280;9346;52.006;4.720;2024-02-21T11:56:14;101127.00;;;11.26;100.00
18436;BME280;9346;52.006;4.720;2024-02-21T11:58:41;101122.31;;;11.26;100.00
18436;BME280;9346;52.006;4.720;2024-02-21T12:01:08;101107.69;;;11.26;100.00
18436;BME280;9346;52.006;4.720;2024-02-21T12:03:37;101106.88;;;11.25;100.00
18436;BME280;9346;52.006;4.720;2024-02-21T12:06:06;101099.69;;;11.24;100.00
18436;BME280;9346;52.006;4.720;2024-02-21T12:08:41;101093.09;;;11.30;100.00
18436;BME280;9346;52.006;4.720;2024-02-21T12:11:16;101089.22;;;11.31;100.00
18436;BME280;9346;52.006;4.720;2024-02-21T12:13:43;101079.84;;;11.32;100.00
18436;BME280;9346;52.006;4.720;2024-02-21T12:16:10;101049.78;;;11.31;100.00
18436;BME280;9346;52.006;4.720;2024-02-21T12:18:39;101051.47;;;11.32;100.00
18436;BME280;9346;52.006;4.720;2024-02-21T12:21:05;101036.00;;;11.31;100.00
18436;BME280;9346;52.006;4.720;2024-02-21T12:23:33;101026.34;;;11.28;100.00
18436;BME280;9346;52.006;4.720;2024-02-21T12:26:00;101028.56;;;11.26;100.00
18436;BME280;9346;52.006;4.720;2024-02-21T12:28:27;101015.59;;;11.27;100.00
18436;BME280;9346;52.006;4.720;2024-02-21T12:30:54;101006.25;;;11.28;100.00
18436;BME280;9346;52.006;4.720;2024-02-21T12:33:21;100993.00;;;11.25;100.00
18436;BME280;9346;52.006;4.720;2024-02-21T12:35:50;100972.88;;;11.24;100.00
18436;BME280;9346;52.006;4.720;2024-02-21T12:38:17;100970.94;;;11.20;100.00
18436;BME280;9346;52.006;4.720;2024-02-21T12:40:46;100962.09;;;11.18;100.00
18436;BME280;9346;52.006;4.720;2024-02-21T12:43:13;100972.03;;;11.19;100.00
18436;BME280;9346;52.006;4.720;2024-02-21T12:45:39;100953.56;;;11.19;100.00
18436;BME280;9346;52.006;4.720;2024-02-21T12:48:06;100950.25;;;11.17;100.00
18436;BME280;9346;52.006;4.720;2024-02-21T12:50:33;100949.97;;;11.19;100.00
18436;BME280;9346;52.006;4.720;2024-02-21T12:53:02;100940.03;;;11.18;100.00